sensor_id;sensor_type;location;lat;lon;timestamp;P1;durP1;ratioP1;P2;durP2;ratioP2
71665;SDS011;59503;53.486;10.196;2023-08-31T00:01:31;24.10;;;10.90;;
71665;SDS011;59503;53.486;10.196;2023-08-31T00:03:58;24.88;;;11.40;;
71665;SDS011;59503;53.486;10.196;2023-08-31T00:06:25;25.40;;;11.57;;
71665;SDS011;59503;53.486;10.196;2023-08-31T00:08:50;21.60;;;10.37;;
71665;SDS011;59503;53.486;10.196;2023-08-31T00:11:16;26.00;;;10.73;;
71665;SDS011;59503;53.486;10.196;2023-08-31T00:13:41;20.07;;;9.80;;
71665;SDS011;59503;53.486;10.196;2023-08-31T00:16:07;19.63;;;9.13;;
71665;SDS011;59503;53.486;10.196;2023-08-31T00:18:34;18.02;;;8.40;;
71665;SDS011;59503;53.486;10.196;2023-08-31T00:21:01;18.40;;;9.03;;
71665;SDS011;59503;53.486;10.196;2023-08-31T00:23:26;15.80;;;7.47;;
71665;SDS011;59503;53.486;10.196;2023-08-31T00:25:52;16.63;;;7.60;;
71665;SDS011;59503;53.486;10.196;2023-08-31T00:28:18;17.80;;;7.72;;
71665;SDS011;59503;53.486;10.196;2023-08-31T00:30:44;14.63;;;7.30;;
71665;SDS011;59503;53.486;10.196;2023-08-31T00:33:09;16.90;;;7.27;;
71665;SDS011;59503;53.486;10.196;2023-08-31T00:35:35;15.90;;;6.47;;
71665;SDS011;59503;53.486;10.196;2023-08-31T00:38:01;16.23;;;7.30;;
71665;SDS011;59503;53.486;10.196;2023-08-31T00:40:29;13.68;;;6.32;;
71665;SDS011;59503;53.486;10.196;2023-08-31T00:42:56;14.85;;;6.00;;
71665;SDS011;59503;53.486;10.196;2023-08-31T00:45:22;17.73;;;7.13;;
71665;SDS011;59503;53.486;10.196;2023-08-31T00:47:48;15.35;;;6.90;;
71665;SDS011;59503;53.486;10.196;2023-08-31T00:50:14;15.07;;;6.68;;
71665;SDS011;59503;53.486;10.196;2023-08-31T00:52:40;15.63;;;6.77;;
71665;SDS011;59503;53.486;10.196;2023-08-31T00:55:09;14.25;;;6.90;;
71665;SDS011;59503;53.486;10.196;2023-08-31T00:57:35;17.83;;;7.47;;
71665;SDS011;59503;53.486;10.196;2023-08-31T01:00:00;17.57;;;8.00;;
71665;SDS011;59503;53.486;10.196;2023-08-31T01:02:40;17.40;;;7.63;;
71665;SDS011;59503;53.486;10.196;2023-08-31T01:13:32;24.10;;;9.73;;
71665;SDS011;59503;53.486;10.196;2023-08-31T01:16:00;22.07;;;9.90;;
71665;SDS011;59503;53.486;10.196;2023-08-31T01:18:30;23.15;;;9.02;;
71665;SDS011;59503;53.486;10.196;2023-08-31T01:21:00;22.58;;;10.07;;
71665;SDS011;59503;53.486;10.196;2023-08-31T01:26:23;27.67;;;10.30;;
71665;SDS011;59503;53.486;10.196;2023-08-31T01:28:50;22.63;;;10.03;;
71665;SDS011;59503;53.486;10.196;2023-08-31T01:31:17;24.20;;;10.77;;
71665;SDS011;59503;53.486;10.196;2023-08-31T01:33:42;24.70;;;10.48;;
71665;SDS011;59503;53.486;10.196;2023-08-31T01:36:12;22.90;;;10.33;;
71665;SDS011;59503;53.486;10.196;2023-08-31T01:38:45;21.00;;;9.68;;
71665;SDS011;59503;53.486;10.196;2023-08-31T01:41:19;26.10;;;10.68;;
71665;SDS011;59503;53.486;10.196;2023-08-31T01:43:47;24.70;;;10.60;;
71665;SDS011;59503;53.486;10.196;2023-08-31T01:46:14;25.70;;;10.55;;
71665;SDS011;59503;53.486;10.196;2023-08-31T01:48:40;23.50;;;9.80;;
71665;SDS011;59503;53.486;10.196;2023-08-31T01:51:06;21.83;;;8.93;;
71665;SDS011;59503;53.486;10.196;2023-08-31T01:53:35;27.60;;;10.60;;
71665;SDS011;59503;53.486;10.196;2023-08-31T01:56:00;22.60;;;9.57;;
71665;SDS011;59503;53.486;10.196;2023-08-31T01:58:25;20.40;;;9.90;;
71665;SDS011;59503;53.486;10.196;2023-08-31T02:00:51;23.08;;;9.20;;
71665;SDS011;59503;53.486;10.196;2023-08-31T02:03:16;22.73;;;9.53;;
71665;SDS011;59503;53.486;10.196;2023-08-31T02:05:41;22.63;;;9.40;;
71665;SDS011;59503;53.486;10.196;2023-08-31T02:08:07;25.77;;;9.50;;
71665;SDS011;59503;53.486;10.196;2023-08-31T02:10:32;22.33;;;9.50;;
71665;SDS011;59503;53.486;10.196;2023-08-31T02:12:57;20.70;;;9.17;;
71665;SDS011;59503;53.486;10.196;2023-08-31T02:15:25;20.05;;;9.30;;
71665;SDS011;59503;53.486;10.196;2023-08-31T02:17:50;18.27;;;8.70;;
71665;SDS011;59503;53.486;10.196;2023-08-31T02:20:15;21.30;;;9.27;;
71665;SDS011;59503;53.486;10.196;2023-08-31T02:22:40;23.47;;;9.03;;
71665;SDS011;59503;53.486;10.196;2023-08-31T02:25:06;20.70;;;9.18;;
71665;SDS011;59503;53.486;10.196;2023-08-31T02:27:31;20.23;;;8.37;;
71665;SDS011;59503;53.486;10.196;2023-08-31T02:29:57;24.00;;;8.97;;
71665;SDS011;59503;53.486;10.196;2023-08-31T02:32:22;18.00;;;8.23;;
71665;SDS011;59503;53.486;10.196;2023-08-31T02:34:48;23.67;;;9.17;;
71665;SDS011;59503;53.486;10.196;2023-08-31T02:37:13;19.80;;;9.00;;
71665;SDS011;59503;53.486;10.196;2023-08-31T02:39:38;18.83;;;7.97;;
71665;SDS011;59503;53.486;10.196;2023-08-31T02:42:05;19.02;;;8.95;;
71665;SDS011;59503;53.486;10.196;2023-08-31T02:44:30;21.70;;;8.20;;
71665;SDS011;59503;53.486;10.196;2023-08-31T02:46:56;26.58;;;8.90;;
71665;SDS011;59503;53.486;10.196;2023-08-31T02:49:22;21.30;;;8.90;;
71665;SDS011;59503;53.486;10.196;2023-08-31T02:51:47;23.70;;;8.80;;
71665;SDS011;59503;53.486;10.196;2023-08-31T02:54:14;26.67;;;10.18;;
71665;SDS011;59503;53.486;10.196;2023-08-31T02:56:39;26.35;;;9.45;;
71665;SDS011;59503;53.486;10.196;2023-08-31T02:59:05;23.53;;;10.37;;
71665;SDS011;59503;53.486;10.196;2023-08-31T03:01:30;24.00;;;9.07;;
71665;SDS011;59503;53.486;10.196;2023-08-31T03:03:55;26.50;;;9.27;;
71665;SDS011;59503;53.486;10.196;2023-08-31T03:06:21;26.13;;;8.90;;
71665;SDS011;59503;53.486;10.196;2023-08-31T03:08:46;24.10;;;9.00;;
71665;SDS011;59503;53.486;10.196;2023-08-31T03:11:11;23.20;;;9.07;;
71665;SDS011;59503;53.486;10.196;2023-08-31T03:13:39;22.55;;;9.32;;
71665;SDS011;59503;53.486;10.196;2023-08-31T03:16:04;23.10;;;8.43;;
71665;SDS011;59503;53.486;10.196;2023-08-31T03:18:30;21.57;;;7.97;;
71665;SDS011;59503;53.486;10.196;2023-08-31T03:20:55;27.85;;;9.00;;
71665;SDS011;59503;53.486;10.196;2023-08-31T03:23:21;24.27;;;8.60;;
71665;SDS011;59503;53.486;10.196;2023-08-31T03:25:46;24.90;;;8.30;;
71665;SDS011;59503;53.486;10.196;2023-08-31T03:28:11;20.75;;;7.55;;
71665;SDS011;59503;53.486;10.196;2023-08-31T03:30:37;25.47;;;8.90;;
71665;SDS011;59503;53.486;10.196;2023-08-31T03:33:02;25.83;;;8.60;;
71665;SDS011;59503;53.486;10.196;2023-08-31T03:35:28;26.77;;;8.30;;
71665;SDS011;59503;53.486;10.196;2023-08-31T03:37:54;24.33;;;8.60;;
71665;SDS011;59503;53.486;10.196;2023-08-31T03:40:20;24.02;;;8.02;;
71665;SDS011;59503;53.486;10.196;2023-08-31T03:42:45;25.77;;;8.50;;
71665;SDS011;59503;53.486;10.196;2023-08-31T03:45:10;22.00;;;7.77;;
71665;SDS011;59503;53.486;10.196;2023-08-31T03:47:36;23.35;;;8.25;;
71665;SDS011;59503;53.486;10.196;2023-08-31T03:50:02;18.10;;;6.90;;
71665;SDS011;59503;53.486;10.196;2023-08-31T03:52:27;27.70;;;7.95;;
71665;SDS011;59503;53.486;10.196;2023-08-31T03:54:53;17.80;;;7.23;;
71665;SDS011;59503;53.486;10.196;2023-08-31T03:57:19;22.80;;;8.03;;
71665;SDS011;59503;53.486;10.196;2023-08-31T03:59:45;17.02;;;7.68;;
71665;SDS011;59503;53.486;10.196;2023-08-31T04:02:10;25.97;;;8.03;;
71665;SDS011;59503;53.486;10.196;2023-08-31T04:04:35;20.65;;;7.32;;
71665;SDS011;59503;53.486;10.196;2023-08-31T04:07:01;19.60;;;6.30;;
71665;SDS011;59503;53.486;10.196;2023-08-31T04:09:26;15.20;;;6.33;;
71665;SDS011;59503;53.486;10.196;2023-08-31T04:11:51;18.10;;;6.67;;
71665;SDS011;59503;53.486;10.196;2023-08-31T04:14:17;16.97;;;6.27;;
71665;SDS011;59503;53.486;10.196;2023-08-31T04:16:43;17.65;;;6.90;;
71665;SDS011;59503;53.486;10.196;2023-08-31T04:19:09;15.13;;;6.25;;
71665;SDS011;59503;53.486;10.196;2023-08-31T04:21:34;18.73;;;6.57;;
71665;SDS011;59503;53.486;10.196;2023-08-31T04:23:59;14.40;;;5.70;;
71665;SDS011;59503;53.486;10.196;2023-08-31T04:26:25;16.83;;;6.10;;
71665;SDS011;59503;53.486;10.196;2023-08-31T04:28:50;17.13;;;5.97;;
71665;SDS011;59503;53.486;10.196;2023-08-31T04:31:15;16.10;;;6.18;;
71665;SDS011;59503;53.486;10.196;2023-08-31T04:33:41;14.57;;;5.50;;
71665;SDS011;59503;53.486;10.196;2023-08-31T04:36:06;17.10;;;6.10;;
71665;SDS011;59503;53.486;10.196;2023-08-31T04:38:32;14.63;;;5.90;;
71665;SDS011;59503;53.486;10.196;2023-08-31T04:40:59;15.40;;;6.05;;
71665;SDS011;59503;53.486;10.196;2023-08-31T04:43:25;16.27;;;5.57;;
71665;SDS011;59503;53.486;10.196;2023-08-31T04:45:53;13.37;;;5.20;;
71665;SDS011;59503;53.486;10.196;2023-08-31T04:48:19;23.92;;;6.10;;
71665;SDS011;59503;53.486;10.196;2023-08-31T04:50:45;18.97;;;6.50;;
71665;SDS011;59503;53.486;10.196;2023-08-31T04:53:10;16.60;;;6.20;;
71665;SDS011;59503;53.486;10.196;2023-08-31T04:55:36;15.50;;;6.47;;
71665;SDS011;59503;53.486;10.196;2023-08-31T04:58:02;23.10;;;6.07;;
71665;SDS011;59503;53.486;10.196;2023-08-31T05:00:28;18.10;;;7.00;;
71665;SDS011;59503;53.486;10.196;2023-08-31T05:02:53;13.93;;;5.53;;
71665;SDS011;59503;53.486;10.196;2023-08-31T05:05:18;20.07;;;6.67;;
71665;SDS011;59503;53.486;10.196;2023-08-31T05:07:44;20.63;;;6.53;;
71665;SDS011;59503;53.486;10.196;2023-08-31T05:10:09;18.67;;;6.27;;
71665;SDS011;59503;53.486;10.196;2023-08-31T05:12:35;20.30;;;5.88;;
71665;SDS011;59503;53.486;10.196;2023-08-31T05:15:00;23.70;;;6.60;;
71665;SDS011;59503;53.486;10.196;2023-08-31T05:17:27;17.35;;;6.00;;
71665;SDS011;59503;53.486;10.196;2023-08-31T05:19:52;13.50;;;5.70;;
71665;SDS011;59503;53.486;10.196;2023-08-31T05:22:18;16.77;;;5.83;;
71665;SDS011;59503;53.486;10.196;2023-08-31T05:24:43;21.93;;;6.53;;
71665;SDS011;59503;53.486;10.196;2023-08-31T05:27:08;23.27;;;6.25;;
71665;SDS011;59503;53.486;10.196;2023-08-31T05:29:34;17.53;;;5.90;;
71665;SDS011;59503;53.486;10.196;2023-08-31T05:31:59;25.93;;;6.20;;
71665;SDS011;59503;53.486;10.196;2023-08-31T05:34:24;14.67;;;5.27;;
71665;SDS011;59503;53.486;10.196;2023-08-31T05:36:50;15.40;;;5.95;;
71665;SDS011;59503;53.486;10.196;2023-08-31T05:39:15;16.10;;;5.60;;
71665;SDS011;59503;53.486;10.196;2023-08-31T05:41:43;15.70;;;6.05;;
71665;SDS011;59503;53.486;10.196;2023-08-31T05:44:09;21.47;;;5.50;;
71665;SDS011;59503;53.486;10.196;2023-08-31T05:46:35;18.40;;;6.10;;
71665;SDS011;59503;53.486;10.196;2023-08-31T05:49:01;14.57;;;5.53;;
71665;SDS011;59503;53.486;10.196;2023-08-31T05:51:27;13.98;;;6.05;;
71665;SDS011;59503;53.486;10.196;2023-08-31T05:53:52;15.53;;;6.00;;
71665;SDS011;59503;53.486;10.196;2023-08-31T05:56:18;19.03;;;5.23;;
71665;SDS011;59503;53.486;10.196;2023-08-31T05:58:44;17.05;;;6.05;;
71665;SDS011;59503;53.486;10.196;2023-08-31T06:01:09;15.70;;;5.50;;
71665;SDS011;59503;53.486;10.196;2023-08-31T06:03:35;15.40;;;5.00;;
71665;SDS011;59503;53.486;10.196;2023-08-31T06:06:01;17.20;;;5.90;;
71665;SDS011;59503;53.486;10.196;2023-08-31T06:08:27;12.03;;;5.17;;
71665;SDS011;59503;53.486;10.196;2023-08-31T06:10:52;12.98;;;5.43;;
71665;SDS011;59503;53.486;10.196;2023-08-31T06:13:17;9.63;;;4.80;;
71665;SDS011;59503;53.486;10.196;2023-08-31T06:15:43;11.27;;;4.10;;
71665;SDS011;59503;53.486;10.196;2023-08-31T06:18:09;8.93;;;4.15;;
71665;SDS011;59503;53.486;10.196;2023-08-31T06:20:35;13.27;;;4.90;;
71665;SDS011;59503;53.486;10.196;2023-08-31T06:23:01;11.57;;;3.93;;
71665;SDS011;59503;53.486;10.196;2023-08-31T06:25:27;12.00;;;3.70;;
71665;SDS011;59503;53.486;10.196;2023-08-31T06:27:53;16.23;;;4.18;;
71665;SDS011;59503;53.486;10.196;2023-08-31T06:30:18;14.67;;;3.93;;
71665;SDS011;59503;53.486;10.196;2023-08-31T06:32:44;10.07;;;3.67;;
71665;SDS011;59503;53.486;10.196;2023-08-31T06:35:13;16.98;;;3.88;;
71665;SDS011;59503;53.486;10.196;2023-08-31T06:37:40;10.20;;;3.40;;
71665;SDS011;59503;53.486;10.196;2023-08-31T06:40:06;7.13;;;3.45;;
71665;SDS011;59503;53.486;10.196;2023-08-31T06:42:36;7.57;;;3.60;;
71665;SDS011;59503;53.486;10.196;2023-08-31T06:45:05;10.00;;;3.67;;
71665;SDS011;59503;53.486;10.196;2023-08-31T06:47:32;6.03;;;3.60;;
71665;SDS011;59503;53.486;10.196;2023-08-31T06:49:58;7.53;;;3.47;;
71665;SDS011;59503;53.486;10.196;2023-08-31T06:52:24;8.40;;;3.33;;
71665;SDS011;59503;53.486;10.196;2023-08-31T06:54:50;9.30;;;3.42;;
71665;SDS011;59503;53.486;10.196;2023-08-31T06:57:15;9.17;;;3.30;;
71665;SDS011;59503;53.486;10.196;2023-08-31T06:59:40;8.93;;;3.40;;
71665;SDS011;59503;53.486;10.196;2023-08-31T07:02:06;7.07;;;2.80;;
71665;SDS011;59503;53.486;10.196;2023-08-31T07:04:31;9.07;;;3.20;;
71665;SDS011;59503;53.486;10.196;2023-08-31T07:06:56;5.72;;;3.70;;
71665;SDS011;59503;53.486;10.196;2023-08-31T07:09:22;7.30;;;3.40;;
71665;SDS011;59503;53.486;10.196;2023-08-31T07:11:47;4.60;;;2.80;;
71665;SDS011;59503;53.486;10.196;2023-08-31T07:14:12;7.47;;;2.90;;
71665;SDS011;59503;53.486;10.196;2023-08-31T07:16:37;4.87;;;2.73;;
71665;SDS011;59503;53.486;10.196;2023-08-31T07:19:03;4.30;;;2.47;;
71665;SDS011;59503;53.486;10.196;2023-08-31T07:21:28;5.28;;;2.10;;
71665;SDS011;59503;53.486;10.196;2023-08-31T07:23:54;7.43;;;1.90;;
71665;SDS011;59503;53.486;10.196;2023-08-31T07:26:20;5.20;;;2.00;;
71665;SDS011;59503;53.486;10.196;2023-08-31T07:28:46;5.25;;;2.00;;
71665;SDS011;59503;53.486;10.196;2023-08-31T07:31:11;4.22;;;2.08;;
71665;SDS011;59503;53.486;10.196;2023-08-31T07:33:37;6.50;;;1.83;;
71665;SDS011;59503;53.486;10.196;2023-08-31T07:36:02;5.20;;;2.00;;
71665;SDS011;59503;53.486;10.196;2023-08-31T07:38:29;6.57;;;1.80;;
71665;SDS011;59503;53.486;10.196;2023-08-31T07:40:55;5.22;;;1.55;;
71665;SDS011;59503;53.486;10.196;2023-08-31T07:43:20;3.80;;;1.63;;
71665;SDS011;59503;53.486;10.196;2023-08-31T07:45:46;2.93;;;1.50;;
71665;SDS011;59503;53.486;10.196;2023-08-31T07:48:11;9.27;;;2.13;;
71665;SDS011;59503;53.486;10.196;2023-08-31T07:50:36;4.77;;;2.10;;
71665;SDS011;59503;53.486;10.196;2023-08-31T07:53:02;4.97;;;1.73;;
71665;SDS011;59503;53.486;10.196;2023-08-31T07:55:28;4.90;;;1.73;;
71665;SDS011;59503;53.486;10.196;2023-08-31T07:57:54;3.90;;;2.00;;
71665;SDS011;59503;53.486;10.196;2023-08-31T08:00:19;3.83;;;1.97;;
71665;SDS011;59503;53.486;10.196;2023-08-31T08:02:45;6.43;;;1.70;;
71665;SDS011;59503;53.486;10.196;2023-08-31T08:05:11;5.00;;;1.90;;
71665;SDS011;59503;53.486;10.196;2023-08-31T08:07:36;3.77;;;1.83;;
71665;SDS011;59503;53.486;10.196;2023-08-31T08:10:01;4.60;;;1.70;;
71665;SDS011;59503;53.486;10.196;2023-08-31T08:12:27;4.30;;;1.85;;
71665;SDS011;59503;53.486;10.196;2023-08-31T08:15:01;2.85;;;1.40;;
71665;SDS011;59503;53.486;10.196;2023-08-31T08:17:27;4.00;;;1.40;;
71665;SDS011;59503;53.486;10.196;2023-08-31T08:19:52;6.93;;;1.13;;
71665;SDS011;59503;53.486;10.196;2023-08-31T08:22:18;3.63;;;1.40;;
71665;SDS011;59503;53.486;10.196;2023-08-31T08:24:43;6.43;;;1.43;;
71665;SDS011;59503;53.486;10.196;2023-08-31T08:27:08;4.07;;;1.60;;
71665;SDS011;59503;53.486;10.196;2023-08-31T08:29:33;3.47;;;1.52;;
71665;SDS011;59503;53.486;10.196;2023-08-31T08:31:59;3.40;;;1.60;;
71665;SDS011;59503;53.486;10.196;2023-08-31T08:34:25;5.73;;;2.07;;
71665;SDS011;59503;53.486;10.196;2023-08-31T08:36:51;2.58;;;1.70;;
71665;SDS011;59503;53.486;10.196;2023-08-31T08:39:17;3.95;;;1.70;;
71665;SDS011;59503;53.486;10.196;2023-08-31T08:41:43;4.27;;;1.97;;
71665;SDS011;59503;53.486;10.196;2023-08-31T08:44:09;1.83;;;1.27;;
71665;SDS011;59503;53.486;10.196;2023-08-31T08:46:35;3.17;;;1.65;;
71665;SDS011;59503;53.486;10.196;2023-08-31T08:49:02;6.25;;;1.85;;
71665;SDS011;59503;53.486;10.196;2023-08-31T08:51:30;4.93;;;1.60;;
71665;SDS011;59503;53.486;10.196;2023-08-31T08:53:56;3.85;;;1.52;;
71665;SDS011;59503;53.486;10.196;2023-08-31T08:56:24;2.88;;;1.55;;
71665;SDS011;59503;53.486;10.196;2023-08-31T08:58:49;5.70;;;1.87;;
71665;SDS011;59503;53.486;10.196;2023-08-31T09:01:15;2.92;;;1.35;;
71665;SDS011;59503;53.486;10.196;2023-08-31T09:03:42;5.57;;;1.90;;
71665;SDS011;59503;53.486;10.196;2023-08-31T09:06:08;3.70;;;1.55;;
71665;SDS011;59503;53.486;10.196;2023-08-31T09:08:35;4.57;;;1.83;;
71665;SDS011;59503;53.486;10.196;2023-08-31T09:11:02;6.28;;;1.88;;
71665;SDS011;59503;53.486;10.196;2023-08-31T09:13:28;3.50;;;1.63;;
71665;SDS011;59503;53.486;10.196;2023-08-31T09:15:54;4.13;;;1.70;;
71665;SDS011;59503;53.486;10.196;2023-08-31T09:20:49;3.30;;;1.58;;
71665;SDS011;59503;53.486;10.196;2023-08-31T09:23:15;4.88;;;1.80;;
71665;SDS011;59503;53.486;10.196;2023-08-31T09:25:42;6.10;;;2.03;;
71665;SDS011;59503;53.486;10.196;2023-08-31T09:28:09;3.42;;;1.70;;
71665;SDS011;59503;53.486;10.196;2023-08-31T09:30:35;4.00;;;1.90;;
71665;SDS011;59503;53.486;10.196;2023-08-31T09:33:03;4.85;;;1.80;;
71665;SDS011;59503;53.486;10.196;2023-08-31T09:35:30;3.20;;;2.10;;
71665;SDS011;59503;53.486;10.196;2023-08-31T09:37:57;3.30;;;1.87;;
71665;SDS011;59503;53.486;10.196;2023-08-31T09:40:22;2.75;;;1.55;;
71665;SDS011;59503;53.486;10.196;2023-08-31T09:42:51;5.35;;;1.83;;
71665;SDS011;59503;53.486;10.196;2023-08-31T09:45:19;6.10;;;1.73;;
71665;SDS011;59503;53.486;10.196;2023-08-31T09:47:58;5.30;;;1.80;;
71665;SDS011;59503;53.486;10.196;2023-08-31T09:50:25;2.92;;;1.42;;
71665;SDS011;59503;53.486;10.196;2023-08-31T09:52:54;4.18;;;1.70;;
71665;SDS011;59503;53.486;10.196;2023-08-31T09:55:22;2.75;;;2.05;;
71665;SDS011;59503;53.486;10.196;2023-08-31T09:57:51;3.92;;;1.83;;
71665;SDS011;59503;53.486;10.196;2023-08-31T10:00:19;4.83;;;1.70;;
71665;SDS011;59503;53.486;10.196;2023-08-31T10:02:45;6.63;;;2.42;;
71665;SDS011;59503;53.486;10.196;2023-08-31T10:05:13;3.55;;;1.65;;
71665;SDS011;59503;53.486;10.196;2023-08-31T10:07:39;4.40;;;1.50;;
71665;SDS011;59503;53.486;10.196;2023-08-31T10:10:05;4.18;;;1.70;;
71665;SDS011;59503;53.486;10.196;2023-08-31T10:12:32;5.22;;;1.70;;
71665;SDS011;59503;53.486;10.196;2023-08-31T10:14:59;7.65;;;1.80;;
71665;SDS011;59503;53.486;10.196;2023-08-31T10:17:25;3.67;;;1.77;;
71665;SDS011;59503;53.486;10.196;2023-08-31T10:19:52;4.35;;;1.70;;
71665;SDS011;59503;53.486;10.196;2023-08-31T10:22:18;5.38;;;1.80;;
71665;SDS011;59503;53.486;10.196;2023-08-31T10:24:56;2.90;;;1.80;;
71665;SDS011;59503;53.486;10.196;2023-08-31T10:27:22;4.03;;;1.90;;
71665;SDS011;59503;53.486;10.196;2023-08-31T10:29:47;4.03;;;1.60;;
71665;SDS011;59503;53.486;10.196;2023-08-31T10:32:19;3.20;;;1.90;;
71665;SDS011;59503;53.486;10.196;2023-08-31T10:37:29;4.45;;;1.90;;
71665;SDS011;59503;53.486;10.196;2023-08-31T10:40:10;5.68;;;2.45;;
71665;SDS011;59503;53.486;10.196;2023-08-31T10:42:45;4.50;;;2.10;;
71665;SDS011;59503;53.486;10.196;2023-08-31T10:45:15;3.97;;;1.85;;
71665;SDS011;59503;53.486;10.196;2023-08-31T10:47:46;4.55;;;2.10;;
71665;SDS011;59503;53.486;10.196;2023-08-31T10:50:15;4.53;;;1.90;;
71665;SDS011;59503;53.486;10.196;2023-08-31T10:52:43;4.45;;;2.13;;
71665;SDS011;59503;53.486;10.196;2023-08-31T10:55:10;5.57;;;2.10;;
71665;SDS011;59503;53.486;10.196;2023-08-31T10:57:36;2.85;;;1.75;;
71665;SDS011;59503;53.486;10.196;2023-08-31T11:00:02;3.57;;;1.70;;
71665;SDS011;59503;53.486;10.196;2023-08-31T11:05:14;4.13;;;1.60;;
71665;SDS011;59503;53.486;10.196;2023-08-31T11:07:44;3.00;;;1.40;;
71665;SDS011;59503;53.486;10.196;2023-08-31T11:10:14;3.70;;;1.60;;
71665;SDS011;59503;53.486;10.196;2023-08-31T11:12:52;2.63;;;1.60;;
71665;SDS011;59503;53.486;10.196;2023-08-31T11:15:20;2.65;;;1.42;;
71665;SDS011;59503;53.486;10.196;2023-08-31T11:17:48;2.55;;;1.55;;
71665;SDS011;59503;53.486;10.196;2023-08-31T11:20:16;3.83;;;1.70;;
71665;SDS011;59503;53.486;10.196;2023-08-31T11:22:43;3.15;;;1.67;;
71665;SDS011;59503;53.486;10.196;2023-08-31T11:25:11;2.60;;;1.80;;
71665;SDS011;59503;53.486;10.196;2023-08-31T11:27:38;3.67;;;1.73;;
71665;SDS011;59503;53.486;10.196;2023-08-31T11:30:10;4.82;;;1.50;;
71665;SDS011;59503;53.486;10.196;2023-08-31T11:32:43;2.00;;;1.40;;
71665;SDS011;59503;53.486;10.196;2023-08-31T11:35:18;5.28;;;1.67;;
71665;SDS011;59503;53.486;10.196;2023-08-31T11:37:44;3.47;;;1.50;;
71665;SDS011;59503;53.486;10.196;2023-08-31T11:40:11;4.05;;;1.85;;
71665;SDS011;59503;53.486;10.196;2023-08-31T11:42:39;2.40;;;1.30;;
71665;SDS011;59503;53.486;10.196;2023-08-31T11:45:06;4.60;;;1.60;;
71665;SDS011;59503;53.486;10.196;2023-08-31T11:47:32;3.80;;;2.05;;
71665;SDS011;59503;53.486;10.196;2023-08-31T11:49:58;3.67;;;1.63;;
71665;SDS011;59503;53.486;10.196;2023-08-31T11:52:26;2.45;;;1.60;;
71665;SDS011;59503;53.486;10.196;2023-08-31T11:54:53;1.63;;;1.27;;
71665;SDS011;59503;53.486;10.196;2023-08-31T11:57:19;3.70;;;1.35;;
71665;SDS011;59503;53.486;10.196;2023-08-31T11:59:50;2.15;;;1.30;;
71665;SDS011;59503;53.486;10.196;2023-08-31T12:02:15;4.30;;;1.60;;
71665;SDS011;59503;53.486;10.196;2023-08-31T12:04:42;4.00;;;1.47;;
71665;SDS011;59503;53.486;10.196;2023-08-31T12:07:11;2.42;;;1.40;;
71665;SDS011;59503;53.486;10.196;2023-08-31T12:09:37;3.77;;;1.57;;
71665;SDS011;59503;53.486;10.196;2023-08-31T12:12:02;4.82;;;1.70;;
71665;SDS011;59503;53.486;10.196;2023-08-31T12:14:29;2.03;;;1.33;;
71665;SDS011;59503;53.486;10.196;2023-08-31T12:17:06;3.17;;;1.57;;
71665;SDS011;59503;53.486;10.196;2023-08-31T12:19:33;2.47;;;1.10;;
71665;SDS011;59503;53.486;10.196;2023-08-31T12:22:01;1.88;;;1.20;;
71665;SDS011;59503;53.486;10.196;2023-08-31T12:24:26;1.70;;;1.30;;
71665;SDS011;59503;53.486;10.196;2023-08-31T12:26:52;7.43;;;1.53;;
71665;SDS011;59503;53.486;10.196;2023-08-31T12:29:21;1.53;;;0.80;;
71665;SDS011;59503;53.486;10.196;2023-08-31T12:31:47;1.50;;;1.10;;
71665;SDS011;59503;53.486;10.196;2023-08-31T12:34:13;3.90;;;1.17;;
71665;SDS011;59503;53.486;10.196;2023-08-31T12:36:38;1.50;;;1.03;;
71665;SDS011;59503;53.486;10.196;2023-08-31T12:39:06;1.92;;;1.00;;
71665;SDS011;59503;53.486;10.196;2023-08-31T12:41:37;2.13;;;1.13;;
71665;SDS011;59503;53.486;10.196;2023-08-31T12:44:04;3.28;;;0.90;;
71665;SDS011;59503;53.486;10.196;2023-08-31T12:46:30;2.73;;;0.93;;
71665;SDS011;59503;53.486;10.196;2023-08-31T12:48:56;2.00;;;0.90;;
71665;SDS011;59503;53.486;10.196;2023-08-31T12:51:22;2.33;;;0.90;;
71665;SDS011;59503;53.486;10.196;2023-08-31T12:53:47;1.57;;;0.80;;
71665;SDS011;59503;53.486;10.196;2023-08-31T12:56:13;2.10;;;0.80;;
71665;SDS011;59503;53.486;10.196;2023-08-31T12:58:46;3.80;;;0.82;;
71665;SDS011;59503;53.486;10.196;2023-08-31T13:01:13;1.20;;;0.60;;
71665;SDS011;59503;53.486;10.196;2023-08-31T13:03:38;7.90;;;0.70;;
71665;SDS011;59503;53.486;10.196;2023-08-31T13:06:04;1.87;;;0.60;;
71665;SDS011;59503;53.486;10.196;2023-08-31T13:08:29;6.77;;;0.60;;
71665;SDS011;59503;53.486;10.196;2023-08-31T13:10:55;3.47;;;0.57;;
71665;SDS011;59503;53.486;10.196;2023-08-31T13:13:20;1.13;;;0.40;;
71665;SDS011;59503;53.486;10.196;2023-08-31T13:15:47;3.78;;;0.63;;
71665;SDS011;59503;53.486;10.196;2023-08-31T13:18:12;1.25;;;0.40;;
71665;SDS011;59503;53.486;10.196;2023-08-31T13:20:38;1.63;;;0.40;;
71665;SDS011;59503;53.486;10.196;2023-08-31T13:23:04;5.90;;;0.60;;
71665;SDS011;59503;53.486;10.196;2023-08-31T13:25:29;2.03;;;0.52;;
71665;SDS011;59503;53.486;10.196;2023-08-31T13:27:55;2.00;;;0.50;;
71665;SDS011;59503;53.486;10.196;2023-08-31T13:30:22;2.03;;;0.40;;
71665;SDS011;59503;53.486;10.196;2023-08-31T13:32:48;1.95;;;0.40;;
71665;SDS011;59503;53.486;10.196;2023-08-31T13:35:14;2.65;;;0.52;;
71665;SDS011;59503;53.486;10.196;2023-08-31T13:37:39;1.87;;;0.60;;
71665;SDS011;59503;53.486;10.196;2023-08-31T13:40:05;1.67;;;0.50;;
71665;SDS011;59503;53.486;10.196;2023-08-31T13:42:36;0.52;;;0.40;;
71665;SDS011;59503;53.486;10.196;2023-08-31T13:45:04;1.30;;;0.40;;
71665;SDS011;59503;53.486;10.196;2023-08-31T13:47:33;1.15;;;0.32;;
71665;SDS011;59503;53.486;10.196;2023-08-31T13:49:59;4.57;;;0.60;;
71665;SDS011;59503;53.486;10.196;2023-08-31T13:52:25;0.50;;;0.30;;
71665;SDS011;59503;53.486;10.196;2023-08-31T13:54:51;1.65;;;0.40;;
71665;SDS011;59503;53.486;10.196;2023-08-31T13:57:16;0.97;;;0.50;;
71665;SDS011;59503;53.486;10.196;2023-08-31T13:59:43;2.85;;;0.60;;
71665;SDS011;59503;53.486;10.196;2023-08-31T14:02:09;1.63;;;0.50;;
71665;SDS011;59503;53.486;10.196;2023-08-31T14:04:34;0.83;;;0.40;;
71665;SDS011;59503;53.486;10.196;2023-08-31T14:07:00;0.80;;;0.50;;
71665;SDS011;59503;53.486;10.196;2023-08-31T14:09:26;2.23;;;0.60;;
71665;SDS011;59503;53.486;10.196;2023-08-31T14:11:52;1.35;;;0.50;;
71665;SDS011;59503;53.486;10.196;2023-08-31T14:14:19;1.92;;;0.40;;
71665;SDS011;59503;53.486;10.196;2023-08-31T14:16:45;2.20;;;0.50;;
71665;SDS011;59503;53.486;10.196;2023-08-31T14:19:10;1.00;;;0.47;;
71665;SDS011;59503;53.486;10.196;2023-08-31T14:21:36;2.83;;;0.40;;
71665;SDS011;59503;53.486;10.196;2023-08-31T14:24:01;4.40;;;0.50;;
71665;SDS011;59503;53.486;10.196;2023-08-31T14:26:27;1.30;;;0.60;;
71665;SDS011;59503;53.486;10.196;2023-08-31T14:28:53;0.75;;;0.50;;
71665;SDS011;59503;53.486;10.196;2023-08-31T14:31:19;0.97;;;0.53;;
71665;SDS011;59503;53.486;10.196;2023-08-31T14:33:44;2.17;;;0.70;;
71665;SDS011;59503;53.486;10.196;2023-08-31T14:36:11;1.23;;;0.70;;
71665;SDS011;59503;53.486;10.196;2023-08-31T14:38:37;1.70;;;0.82;;
71665;SDS011;59503;53.486;10.196;2023-08-31T14:41:03;1.47;;;0.70;;
71665;SDS011;59503;53.486;10.196;2023-08-31T14:43:29;1.25;;;0.80;;